Time;durP1;ratioP1;P1;durP2;ratioP2;P2;SDS_P1;SDS_P2;PMS_P1;PMS_P2;Temp;Humidity;BMP_temperature;BMP_pressure;BME280_temperature;BME280_humidity;BME280_pressure;Samples;Min_cycle;Max_cycle;Signal;HPM_P1;HPM_P2
2023/10/20 00:01:07;;;;;;;9.65;2.70;;;21.80;96.70;;;;;;4986946;28;20453;-79
2023/10/20 00:03:35;;;;;;;10.23;3.13;;;21.80;96.70;;;;;;4966783;28;20051;-78
2023/10/20 00:06:04;;;;;;;13.90;3.15;;;21.80;96.70;;;;;;4997026;28;20138;-78
2023/10/20 00:08:32;;;;;;;12.30;3.45;;;21.80;96.70;;;;;;4994895;28;20042;-79
2023/10/20 00:11:03;;;;;;;11.85;3.40;;;21.80;96.70;;;;;;4984751;28;20049;-78
2023/10/20 00:13:33;;;;;;;11.02;2.88;;;21.70;96.70;;;;;;5001293;28;20117;-77
2023/10/20 00:16:00;;;;;;;12.40;3.22;;;21.80;96.70;;;;;;4980338;28;20052;-78
2023/10/20 00:18:30;;;;;;;12.68;2.83;;;21.80;96.70;;;;;;4970678;28;20108;-78
2023/10/20 00:20:58;;;;;;;14.65;3.13;;;21.80;96.70;;;;;;5003201;28;20629;-78
2023/10/20 00:23:27;;;;;;;14.27;3.58;;;21.90;96.70;;;;;;4980418;28;20133;-78
2023/10/20 00:25:56;;;;;;;15.50;2.95;;;21.90;96.70;;;;;;4978300;28;20049;-78
2023/10/20 00:28:24;;;;;;;10.73;2.80;;;21.90;96.70;;;;;;4986412;28;20126;-79
2023/10/20 00:30:52;;;;;;;10.52;2.60;;;21.90;96.70;;;;;;5003140;28;20088;-79
2023/10/20 00:33:20;;;;;;;10.45;2.72;;;21.90;96.70;;;;;;4982530;28;20127;-79
2023/10/20 00:35:49;;;;;;;13.23;2.85;;;21.90;96.70;;;;;;4973551;28;20058;-80
2023/10/20 00:38:17;;;;;;;13.65;2.78;;;21.90;96.70;;;;;;4973543;28;20042;-79
2023/10/20 00:40:46;;;;;;;15.13;4.68;;;22.00;96.70;;;;;;4983059;28;20050;-79
2023/10/20 00:43:14;;;;;;;13.38;3.53;;;22.10;96.70;;;;;;4981498;28;20764;-78
2023/10/20 00:45:44;;;;;;;9.70;3.17;;;22.20;96.70;;;;;;4966190;28;20050;-79
2023/10/20 00:48:13;;;;;;;12.75;3.10;;;22.20;96.70;;;;;;4966189;28;20113;-78
2023/10/20 00:50:41;;;;;;;12.05;3.45;;;22.30;96.70;;;;;;4986492;28;20061;-78
2023/10/20 00:53:11;;;;;;;9.00;2.72;;;22.30;96.70;;;;;;4969445;28;20505;-78
2023/10/20 00:55:40;;;;;;;15.52;3.50;;;22.40;96.70;;;;;;4982918;28;20050;-77
2023/10/20 00:58:09;;;;;;;13.10;3.17;;;22.40;96.70;;;;;;4986978;28;20046;-79
2023/10/20 01:00:37;;;;;;;13.43;3.38;;;22.40;96.70;;;;;;4983135;28;20069;-79
2023/10/20 01:03:05;;;;;;;10.50;2.92;;;22.40;96.70;;;;;;4966590;28;20051;-76
2023/10/20 01:05:35;;;;;;;13.20;2.95;;;22.60;96.70;;;;;;4972402;28;20058;-78
2023/10/20 01:08:04;;;;;;;9.48;2.63;;;22.60;96.70;;;;;;4976244;28;20106;-77
2023/10/20 01:10:34;;;;;;;9.65;2.90;;;22.60;96.70;;;;;;4978454;28;20527;-76
2023/10/20 01:13:01;;;;;;;13.55;3.60;;;22.60;96.70;;;;;;4968235;28;20606;-77
2023/10/20 01:15:29;;;;;;;9.73;3.00;;;22.60;96.70;;;;;;4977178;28;20596;-76
2023/10/20 01:17:57;;;;;;;11.57;3.00;;;22.70;96.70;;;;;;4985607;28;20378;-77
2023/10/20 01:20:25;;;;;;;14.68;3.42;;;22.70;96.70;;;;;;4986311;28;20174;-77
2023/10/20 01:22:53;;;;;;;10.23;2.80;;;22.60;96.70;;;;;;4982296;28;20174;-78
2023/10/20 01:25:23;;;;;;;10.55;2.88;;;22.70;96.70;;;;;;4981485;28;20046;-77
2023/10/20 01:27:51;;;;;;;17.77;3.83;;;22.70;96.70;;;;;;4970766;28;20043;-77
2023/10/20 01:30:19;;;;;;;15.77;3.42;;;22.70;96.70;;;;;;4963310;28;20543;-77
2023/10/20 01:32:47;;;;;;;14.63;3.38;;;22.70;96.70;;;;;;4969150;28;20054;-77
2023/10/20 01:35:15;;;;;;;14.32;3.50;;;22.70;96.70;;;;;;4983807;28;20394;-77
2023/10/20 01:37:43;;;;;;;14.82;3.25;;;22.70;96.70;;;;;;4980085;28;20045;-77
2023/10/20 01:40:12;;;;;;;11.98;2.90;;;22.70;96.70;;;;;;4969458;28;20046;-77
2023/10/20 01:42:42;;;;;;;11.45;2.70;;;22.70;96.70;;;;;;4986842;28;20043;-77
2023/10/20 01:45:10;;;;;;;11.63;3.10;;;22.70;96.70;;;;;;4977989;28;20101;-76
2023/10/20 01:47:38;;;;;;;12.82;3.00;;;22.60;96.70;;;;;;4977387;28;20047;-77
2023/10/20 01:50:07;;;;;;;14.43;3.33;;;22.60;96.70;;;;;;4980153;28;20062;-77
2023/10/20 01:52:35;;;;;;;10.73;3.35;;;22.70;96.70;;;;;;4956058;28;20046;-77
2023/10/20 01:55:03;;;;;;;13.00;3.00;;;22.80;96.70;;;;;;4976058;28;20058;-77
2023/10/20 01:57:31;;;;;;;9.27;2.60;;;22.70;96.70;;;;;;4977786;28;20038;-77
2023/10/20 02:00:01;;;;;;;11.05;2.80;;;22.70;96.70;;;;;;4984286;28;20532;-77
2023/10/20 02:02:38;;;;;;;14.00;3.10;;;22.70;96.70;;;;;;4981038;28;20058;-78
2023/10/20 02:05:10;;;;;;;11.93;2.70;;;22.70;96.70;;;;;;4986420;28;20078;-77
2023/10/20 02:07:39;;;;;;;11.98;3.42;;;22.70;96.70;;;;;;4976672;28;20054;-78
2023/10/20 02:10:08;;;;;;;11.25;3.33;;;22.70;96.70;;;;;;4969048;28;20121;-77
2023/10/20 02:12:36;;;;;;;10.48;3.40;;;22.80;96.70;;;;;;4982810;28;20051;-75
2023/10/20 02:15:07;;;;;;;10.70;2.42;;;22.80;96.70;;;;;;4983720;28;20084;-77
2023/10/20 02:17:35;;;;;;;13.48;3.13;;;22.70;96.70;;;;;;4976199;28;20603;-77
2023/10/20 02:20:04;;;;;;;12.40;3.33;;;22.70;96.70;;;;;;4980958;28;20053;-78
2023/10/20 02:22:32;;;;;;;9.90;2.72;;;22.70;96.70;;;;;;4982247;28;20148;-77
2023/10/20 02:25:00;;;;;;;7.63;2.80;;;22.70;96.70;;;;;;4965489;28;20039;-77
2023/10/20 02:27:28;;;;;;;11.77;2.92;;;22.70;96.70;;;;;;4982135;28;20132;-76
2023/10/20 02:29:58;;;;;;;7.95;2.60;;;22.70;96.70;;;;;;4984564;28;20459;-77
2023/10/20 02:32:27;;;;;;;12.85;3.30;;;22.70;96.70;;;;;;4955882;28;20082;-78
2023/10/20 02:34:55;;;;;;;9.15;2.75;;;22.70;96.70;;;;;;4958809;28;20070;-77
2023/10/20 02:37:24;;;;;;;12.75;2.92;;;22.70;96.70;;;;;;4980652;28;20089;-76
2023/10/20 02:39:52;;;;;;;12.90;3.50;;;22.70;96.70;;;;;;4984758;28;20116;-77
2023/10/20 02:42:19;;;;;;;10.13;2.60;;;22.70;96.70;;;;;;4975636;28;20480;-77
2023/10/20 02:44:47;;;;;;;15.45;3.85;;;22.70;96.70;;;;;;4985113;28;20413;-76
2023/10/20 02:47:15;;;;;;;12.07;2.80;;;22.70;96.70;;;;;;4984193;28;20064;-77
2023/10/20 02:49:45;;;;;;;10.32;2.75;;;22.70;96.70;;;;;;4968328;28;20056;-77
2023/10/20 02:52:16;;;;;;;10.82;3.35;;;22.70;96.70;;;;;;4952934;28;20520;-77
2023/10/20 02:54:46;;;;;;;12.55;4.00;;;22.70;96.70;;;;;;4975201;28;20050;-79
2023/10/20 02:57:14;;;;;;;10.43;3.50;;;22.80;96.70;;;;;;4958782;28;20046;-80
2023/10/20 02:59:44;;;;;;;12.10;3.95;;;22.80;96.70;;;;;;4979049;28;20424;-80
2023/10/20 03:02:12;;;;;;;14.65;3.67;;;22.80;96.70;;;;;;4983630;28;20460;-79
2023/10/20 03:04:40;;;;;;;14.95;3.90;;;22.80;96.70;;;;;;4978521;28;20038;-80
2023/10/20 03:07:09;;;;;;;13.18;3.88;;;22.90;96.70;;;;;;4974528;28;20050;-80
2023/10/20 03:09:37;;;;;;;18.08;3.92;;;22.90;96.70;;;;;;4975640;28;20047;-80
2023/10/20 03:12:05;;;;;;;14.50;4.75;;;22.90;96.70;;;;;;4982560;28;20146;-80
2023/10/20 03:14:34;;;;;;;14.20;3.78;;;22.90;96.70;;;;;;4960060;28;20046;-79
2023/10/20 03:17:03;;;;;;;15.43;4.32;;;22.90;96.70;;;;;;4979512;28;20505;-80
2023/10/20 03:19:31;;;;;;;16.73;4.18;;;22.90;96.70;;;;;;4981947;28;20504;-78
2023/10/20 03:21:59;;;;;;;15.73;4.45;;;23.00;96.70;;;;;;4972000;28;20105;-81
2023/10/20 03:24:29;;;;;;;16.38;3.55;;;22.90;96.70;;;;;;4959493;28;20054;-79
2023/10/20 03:26:57;;;;;;;19.35;4.32;;;22.90;96.70;;;;;;4977872;28;20143;-80
2023/10/20 03:29:25;;;;;;;15.80;4.25;;;22.90;96.70;;;;;;4975764;28;20133;-80
2023/10/20 03:31:53;;;;;;;19.80;5.05;;;23.00;96.70;;;;;;4984792;28;20062;-80
2023/10/20 03:34:21;;;;;;;12.35;4.00;;;22.90;96.70;;;;;;4996236;28;20042;-80
2023/10/20 03:36:52;;;;;;;15.55;4.07;;;22.90;96.70;;;;;;4985198;28;20049;-79
2023/10/20 03:39:20;;;;;;;14.88;3.95;;;22.90;96.70;;;;;;4989086;28;20809;-80
2023/10/20 03:41:50;;;;;;;16.50;4.55;;;22.90;96.70;;;;;;4987364;28;20136;-79
2023/10/20 03:44:24;;;;;;;11.38;3.72;;;22.90;96.70;;;;;;4987492;28;20445;-79
2023/10/20 03:46:56;;;;;;;16.02;3.50;;;22.90;96.70;;;;;;4983568;28;20410;-80
2023/10/20 03:49:24;;;;;;;18.42;4.15;;;23.00;96.70;;;;;;4977561;28;20046;-80
2023/10/20 03:51:53;;;;;;;17.85;4.90;;;23.00;96.70;;;;;;4970099;28;20050;-80
2023/10/20 03:54:24;;;;;;;18.70;4.38;;;23.00;96.70;;;;;;4987178;28;20124;-80
2023/10/20 03:56:57;;;;;;;17.63;4.88;;;22.90;96.70;;;;;;5004031;28;20543;-80
2023/10/20 03:59:25;;;;;;;17.08;4.15;;;22.90;96.70;;;;;;4970129;28;20082;-80
2023/10/20 04:01:55;;;;;;;19.08;5.75;;;22.90;96.70;;;;;;4980483;28;20061;-80
2023/10/20 04:04:23;;;;;;;16.35;4.00;;;22.90;96.70;;;;;;4968912;28;20065;-79
2023/10/20 04:06:51;;;;;;;19.10;3.83;;;22.90;96.70;;;;;;4962355;28;20073;-81
2023/10/20 04:09:19;;;;;;;20.85;4.30;;;22.90;96.70;;;;;;4977261;28;20065;-79
2023/10/20 04:11:48;;;;;;;19.08;4.90;;;22.90;96.70;;;;;;4977129;28;20054;-80
2023/10/20 04:14:20;;;;;;;12.82;3.88;;;22.90;96.70;;;;;;4977576;28;20054;-80
2023/10/20 04:16:48;;;;;;;19.77;5.18;;;22.90;96.70;;;;;;4965968;28;20050;-79
2023/10/20 04:19:17;;;;;;;15.30;3.90;;;22.90;96.70;;;;;;4987991;28;20046;-80
2023/10/20 04:21:45;;;;;;;15.68;4.07;;;22.90;96.70;;;;;;4986047;28;20049;-79
2023/10/20 04:24:13;;;;;;;15.75;4.07;;;22.90;96.70;;;;;;5001623;28;20549;-79
2023/10/20 04:26:41;;;;;;;13.88;3.83;;;22.90;96.70;;;;;;4997012;28;20045;-80
2023/10/20 04:51:09;;;;;;;13.68;3.47;;;23.00;96.70;;;;;;5001024;28;20049;-81
2023/10/20 05:01:20;;;;;;;19.20;4.05;;;23.00;96.70;;;;;;4998212;28;20046;-81
2023/10/20 05:04:01;;;;;;;13.98;3.25;;;23.00;96.70;;;;;;4984264;28;20087;-82
2023/10/20 05:06:40;;;;;;;12.55;3.20;;;23.00;96.70;;;;;;4984746;28;20047;-81
2023/10/20 05:09:14;;;;;;;13.52;3.42;;;23.00;96.70;;;;;;4983043;28;20049;-81
2023/10/20 05:11:42;;;;;;;10.70;3.53;;;23.00;96.70;;;;;;4978152;28;20486;-81
2023/10/20 05:14:10;;;;;;;13.50;3.80;;;23.00;96.70;;;;;;5011159;28;20104;-81
2023/10/20 05:16:38;;;;;;;10.73;3.55;;;23.00;96.70;;;;;;4961236;28;20065;-81
2023/10/20 05:19:10;;;;;;;14.90;3.55;;;22.90;96.70;;;;;;4980836;28;20061;-81
2023/10/20 05:21:38;;;;;;;16.95;4.18;;;22.80;96.70;;;;;;4987504;28;20066;-80
2023/10/20 05:24:08;;;;;;;11.55;3.38;;;22.80;96.70;;;;;;4975850;28;20568;-81
2023/10/20 05:26:36;;;;;;;8.93;3.58;;;22.80;96.70;;;;;;4999009;28;20050;-81
2023/10/20 05:29:05;;;;;;;11.20;3.42;;;22.70;96.70;;;;;;4994729;28;20043;-81
2023/10/20 05:31:34;;;;;;;14.57;3.75;;;22.70;96.70;;;;;;4970955;28;20064;-81
2023/10/20 05:34:02;;;;;;;10.40;3.60;;;22.60;96.70;;;;;;4999281;28;20495;-81
2023/10/20 05:36:33;;;;;;;14.20;3.55;;;22.60;96.70;;;;;;4984932;28;20136;-81
2023/10/20 05:39:01;;;;;;;19.17;3.45;;;22.50;96.70;;;;;;4981926;28;20775;-81
2023/10/20 05:41:29;;;;;;;12.93;3.70;;;22.40;96.70;;;;;;5000070;28;20060;-82
2023/10/20 05:43:58;;;;;;;13.15;3.65;;;22.40;96.70;;;;;;4982146;28;20112;-81
2023/10/20 05:46:26;;;;;;;15.23;3.03;;;22.40;96.70;;;;;;4961548;28;20153;-82
2023/10/20 05:48:54;;;;;;;11.50;3.95;;;22.40;96.70;;;;;;4973114;28;20153;-81
2023/10/20 05:51:22;;;;;;;11.43;3.47;;;22.40;96.70;;;;;;4978069;28;20052;-80
2023/10/20 05:53:53;;;;;;;10.02;3.60;;;22.40;96.70;;;;;;4984507;28;20809;-82
2023/10/20 05:56:21;;;;;;;14.27;3.42;;;22.40;96.70;;;;;;4974823;28;20066;-81
2023/10/20 05:58:50;;;;;;;12.95;3.67;;;22.30;96.70;;;;;;4991940;28;20050;-81
2023/10/20 06:01:18;;;;;;;16.10;3.67;;;22.30;96.70;;;;;;4989023;28;20042;-81
2023/10/20 06:03:47;;;;;;;15.68;4.30;;;22.30;96.70;;;;;;4973937;28;20046;-81
2023/10/20 06:06:15;;;;;;;16.25;4.00;;;22.40;96.70;;;;;;4977810;28;20070;-82
2023/10/20 06:08:43;;;;;;;16.27;4.70;;;22.40;96.70;;;;;;4989735;28;20121;-81
2023/10/20 06:11:13;;;;;;;14.02;4.47;;;22.40;96.70;;;;;;4980981;28;20129;-82
2023/10/20 06:13:41;;;;;;;11.20;4.32;;;22.40;96.70;;;;;;4981022;28;20137;-82
2023/10/20 06:16:10;;;;;;;16.60;4.35;;;22.40;96.70;;;;;;5000129;28;20050;-82
2023/10/20 06:18:40;;;;;;;23.50;5.25;;;22.40;96.70;;;;;;4959088;28;20142;-83
2023/10/20 06:21:13;;;;;;;14.10;4.05;;;22.40;96.70;;;;;;5003765;28;20042;-80
2023/10/20 06:23:41;;;;;;;18.35;5.05;;;22.40;96.70;;;;;;4978789;28;20054;-82
2023/10/20 06:26:10;;;;;;;21.95;4.78;;;22.40;96.70;;;;;;4982645;28;21084;-82
2023/10/20 06:28:40;;;;;;;18.13;4.45;;;22.40;96.70;;;;;;4980592;28;20042;-81
2023/10/20 06:34:09;;;;;;;16.83;5.07;;;22.50;96.70;;;;;;4997242;28;20048;-80
2023/10/20 06:36:43;;;;;;;19.67;4.60;;;22.50;96.70;;;;;;4990337;28;20042;-81
2023/10/20 06:39:13;;;;;;;17.02;4.90;;;22.50;96.70;;;;;;4972724;28;20046;-80
2023/10/20 06:41:41;;;;;;;16.00;4.05;;;22.60;96.70;;;;;;4962410;28;20141;-81
2023/10/20 06:44:20;;;;;;;20.70;4.88;;;22.50;96.70;;;;;;4972356;28;20050;-82
2023/10/20 06:46:48;;;;;;;23.98;5.28;;;22.50;96.70;;;;;;4957002;28;20515;-81
2023/10/20 06:49:20;;;;;;;22.02;5.93;;;22.70;96.70;;;;;;4964603;28;20046;-82
2023/10/20 06:51:48;;;;;;;16.50;5.20;;;22.80;96.70;;;;;;4983334;28;20143;-80
2023/10/20 06:54:17;;;;;;;21.20;5.13;;;22.90;96.70;;;;;;5003448;28;20050;-82
2023/10/20 06:56:45;;;;;;;24.90;5.40;;;23.00;96.70;;;;;;4983624;28;20042;-81
2023/10/20 06:59:14;;;;;;;23.38;5.55;;;23.10;96.70;;;;;;4987504;28;20052;-81
2023/10/20 07:01:44;;;;;;;21.13;5.55;;;23.20;96.70;;;;;;4998122;28;20101;-82
2023/10/20 07:04:12;;;;;;;23.33;5.45;;;23.30;96.70;;;;;;4976533;28;20068;-81
2023/10/20 07:06:40;;;;;;;19.70;5.72;;;23.30;96.70;;;;;;4995619;28;20046;-81
2023/10/20 07:09:13;;;;;;;18.27;4.95;;;23.30;96.70;;;;;;4984042;28;20516;-81
2023/10/20 07:11:43;;;;;;;25.02;5.95;;;23.30;96.70;;;;;;4981222;28;20060;-81
2023/10/20 07:14:11;;;;;;;43.97;7.15;;;23.30;96.70;;;;;;4980418;28;20052;-81
2023/10/20 07:16:39;;;;;;;25.63;5.93;;;23.30;96.70;;;;;;4988834;28;20066;-81
2023/10/20 07:19:11;;;;;;;20.23;5.70;;;23.30;96.70;;;;;;4966408;28;20067;-81
2023/10/20 07:21:39;;;;;;;25.50;6.85;;;23.30;96.70;;;;;;4984621;28;20092;-82
2023/10/20 07:24:07;;;;;;;22.15;6.10;;;23.30;96.70;;;;;;5006702;28;20053;-82
2023/10/20 07:26:36;;;;;;;19.65;5.78;;;23.30;96.70;;;;;;4968263;28;20713;-79
2023/10/20 07:29:04;;;;;;;23.80;6.38;;;23.40;96.70;;;;;;4971297;28;20106;-82
2023/10/20 07:31:32;;;;;;;26.38;6.35;;;23.40;96.70;;;;;;5003130;28;20072;-80
2023/10/20 07:34:02;;;;;;;24.15;6.47;;;23.50;96.70;;;;;;5000318;28;20070;-80
2023/10/20 07:36:32;;;;;;;26.58;6.65;;;23.40;96.70;;;;;;5000397;28;20065;-80
2023/10/20 07:39:00;;;;;;;20.63;5.38;;;23.50;96.70;;;;;;5004052;28;20049;-80
2023/10/20 07:41:28;;;;;;;21.25;5.28;;;23.60;96.70;;;;;;4988348;28;20097;-78
2023/10/20 07:43:58;;;;;;;17.83;5.10;;;23.60;96.70;;;;;;4994020;28;20044;-80
2023/10/20 07:46:28;;;;;;;19.75;5.65;;;23.60;96.70;;;;;;4979083;28;20042;-80
2023/10/20 07:48:56;;;;;;;20.58;6.28;;;23.60;96.70;;;;;;4970732;28;20042;-80
2023/10/20 07:51:24;;;;;;;25.13;5.72;;;23.60;96.70;;;;;;4978486;28;20067;-79
2023/10/20 07:53:53;;;;;;;27.40;6.32;;;23.70;96.70;;;;;;4963086;28;20048;-79
2023/10/20 07:56:22;;;;;;;21.20;6.03;;;23.70;96.70;;;;;;5003511;28;20249;-79
2023/10/20 07:58:50;;;;;;;27.00;6.95;;;23.70;96.70;;;;;;4993898;28;20051;-80
2023/10/20 08:01:19;;;;;;;27.48;6.30;;;23.80;96.70;;;;;;4978197;28;20050;-80
2023/10/20 08:03:47;;;;;;;27.20;7.05;;;23.80;96.70;;;;;;4979732;28;20050;-81
2023/10/20 08:06:16;;;;;;;24.63;6.60;;;23.80;96.70;;;;;;4990101;28;20428;-80
2023/10/20 08:08:44;;;;;;;24.60;6.00;;;23.80;96.70;;;;;;4985956;28;20053;-80
2023/10/20 08:11:14;;;;;;;24.88;6.35;;;23.80;96.70;;;;;;4987463;28;20396;-82
2023/10/20 08:13:50;;;;;;;15.20;5.15;;;23.90;96.70;;;;;;4987925;28;20133;-81
2023/10/20 08:16:22;;;;;;;26.70;6.35;;;24.00;96.70;;;;;;4996532;28;20052;-79
2023/10/20 08:18:51;;;;;;;22.55;6.88;;;24.00;96.70;;;;;;4969128;28;20055;-79
2023/10/20 08:21:19;;;;;;;26.70;7.97;;;24.00;96.70;;;;;;4970301;28;20049;-80
2023/10/20 08:23:47;;;;;;;26.83;6.93;;;24.10;96.70;;;;;;4985264;28;20780;-81
2023/10/20 08:26:19;;;;;;;21.48;5.80;;;24.10;96.70;;;;;;4988986;28;20050;-82
2023/10/20 08:28:49;;;;;;;24.58;6.55;;;24.10;96.70;;;;;;4966680;28;20047;-81
2023/10/20 08:31:17;;;;;;;22.25;6.55;;;24.10;96.70;;;;;;5001520;28;20048;-79
2023/10/20 08:33:45;;;;;;;26.13;6.93;;;24.20;96.70;;;;;;4975193;28;20070;-80
2023/10/20 08:36:15;;;;;;;19.80;6.60;;;24.20;96.70;;;;;;4980354;28;20129;-80
2023/10/20 08:38:45;;;;;;;31.30;7.28;;;24.20;96.70;;;;;;5004043;28;20782;-79
2023/10/20 08:41:13;;;;;;;41.83;7.70;;;24.20;96.70;;;;;;5001255;28;20555;-80
2023/10/20 08:43:44;;;;;;;23.25;6.30;;;24.20;96.70;;;;;;4985681;28;20786;-80
2023/10/20 08:46:15;;;;;;;25.10;5.20;;;24.20;96.70;;;;;;4982231;28;20148;-81
2023/10/20 08:48:45;;;;;;;28.40;6.43;;;24.30;96.70;;;;;;4987491;28;20052;-80
2023/10/20 08:51:14;;;;;;;23.10;5.60;;;24.40;96.70;;;;;;4978755;28;20058;-80
2023/10/20 08:53:45;;;;;;;22.00;6.13;;;24.50;96.70;;;;;;4972721;28;20485;-80
2023/10/20 08:56:14;;;;;;;24.33;6.03;;;24.60;96.70;;;;;;4995416;28;20662;-80
2023/10/20 08:58:46;;;;;;;22.63;6.00;;;24.70;96.70;;;;;;4979000;28;20058;-78
2023/10/20 09:01:16;;;;;;;23.73;6.00;;;24.80;96.70;;;;;;4983150;28;20713;-81
2023/10/20 09:03:46;;;;;;;28.88;5.57;;;24.80;96.70;;;;;;4972047;28;20062;-79
2023/10/20 09:06:15;;;;;;;19.85;4.75;;;24.80;96.70;;;;;;4971896;28;20078;-79
2023/10/20 09:08:45;;;;;;;22.88;5.50;;;24.80;96.70;;;;;;5003472;28;20046;-80
2023/10/20 09:11:14;;;;;;;20.38;5.68;;;24.70;96.70;;;;;;4990816;28;20137;-79
2023/10/20 09:13:44;;;;;;;24.90;6.05;;;24.70;96.70;;;;;;4978610;28;20101;-79
2023/10/20 09:16:16;;;;;;;20.83;5.53;;;24.70;96.70;;;;;;5003266;28;20108;-80
2023/10/20 09:18:46;;;;;;;26.80;6.00;;;24.70;96.70;;;;;;4974048;28;20046;-78
2023/10/20 09:21:19;;;;;;;26.83;6.38;;;24.60;96.70;;;;;;5002366;28;20129;-79
2023/10/20 09:23:54;;;;;;;24.00;5.88;;;24.60;96.70;;;;;;4970812;28;20057;-79
2023/10/20 09:26:23;;;;;;;27.97;6.60;;;24.60;96.70;;;;;;4974026;28;20104;-79
2023/10/20 09:28:53;;;;;;;21.75;5.53;;;24.60;96.70;;;;;;4987370;28;20073;-78
2023/10/20 09:31:24;;;;;;;25.45;5.72;;;24.60;96.70;;;;;;4989030;28;20046;-79
2023/10/20 09:33:53;;;;;;;26.55;6.00;;;24.60;96.70;;;;;;4959211;28;20054;-79
2023/10/20 09:36:23;;;;;;;36.28;6.85;;;24.50;96.70;;;;;;4990362;28;20168;-77
2023/10/20 09:38:53;;;;;;;31.90;6.65;;;24.60;96.70;;;;;;4971806;28;20070;-78
2023/10/20 09:41:22;;;;;;;19.67;6.03;;;24.60;96.70;;;;;;4980142;28;20046;-79
2023/10/20 09:43:54;;;;;;;27.10;6.00;;;24.60;96.70;;;;;;4964404;28;20050;-79
2023/10/20 09:46:39;;;;;;;24.25;5.82;;;24.70;96.70;;;;;;5001314;28;20621;-79
2023/10/20 09:49:14;;;;;;;23.88;5.35;;;24.60;96.70;;;;;;4987116;28;20117;-80
2023/10/20 09:51:46;;;;;;;23.48;5.80;;;24.60;96.70;;;;;;4993379;28;20104;-80
2023/10/20 09:54:16;;;;;;;19.23;5.35;;;24.60;96.70;;;;;;5006388;28;20383;-79
2023/10/20 09:56:46;;;;;;;23.75;5.72;;;24.70;96.70;;;;;;4972693;28;20142;-79
2023/10/20 09:59:18;;;;;;;23.90;6.05;;;24.70;96.70;;;;;;4998332;28;20128;-80
2023/10/20 10:01:48;;;;;;;21.88;5.93;;;24.70;96.70;;;;;;4972147;28;20469;-80
2023/10/20 10:04:25;;;;;;;20.90;5.78;;;24.60;96.70;;;;;;5002353;28;20097;-80
2023/10/20 10:06:53;;;;;;;24.67;6.25;;;24.60;96.70;;;;;;4986088;28;20049;-80
2023/10/20 10:09:21;;;;;;;23.42;6.65;;;24.60;96.70;;;;;;4969825;28;20070;-79
2023/10/20 10:11:53;;;;;;;20.50;6.15;;;24.50;96.70;;;;;;4978679;28;20049;-79
2023/10/20 10:14:23;;;;;;;22.65;6.70;;;24.50;96.70;;;;;;4989456;28;20050;-79
2023/10/20 10:16:54;;;;;;;24.30;6.60;;;24.40;96.70;;;;;;5002679;28;20065;-78
2023/10/20 10:19:25;;;;;;;21.10;5.85;;;24.40;96.70;;;;;;4987782;28;20053;-79
2023/10/20 10:21:57;;;;;;;23.33;7.20;;;24.40;96.70;;;;;;4965773;28;20042;-78
2023/10/20 10:24:25;;;;;;;33.35;7.13;;;24.40;96.70;;;;;;4986767;28;20456;-79
2023/10/20 10:26:55;;;;;;;25.13;6.82;;;24.30;96.70;;;;;;4997463;28;20061;-80
2023/10/20 10:29:50;;;;;;;19.80;5.47;;;24.30;96.70;;;;;;4986069;28;20449;-80
2023/10/20 10:32:21;;;;;;;27.88;6.38;;;24.30;96.70;;;;;;4996386;28;20500;-78
2023/10/20 10:34:54;;;;;;;26.95;6.82;;;24.20;96.70;;;;;;4987937;28;20073;-79
2023/10/20 10:37:29;;;;;;;24.48;6.70;;;24.20;96.70;;;;;;5005851;28;20042;-80
2023/10/20 10:40:08;;;;;;;25.25;7.35;;;24.30;96.70;;;;;;4982357;28;20084;-78
2023/10/20 10:42:38;;;;;;;27.20;6.88;;;24.20;96.70;;;;;;5001581;28;20041;-79
2023/10/20 10:45:24;;;;;;;26.27;7.20;;;24.20;96.70;;;;;;4987305;28;20057;-79
2023/10/20 10:48:05;;;;;;;35.00;6.55;;;24.20;96.70;;;;;;4984459;28;20042;-79
2023/10/20 10:50:36;;;;;;;23.25;6.68;;;24.20;96.70;;;;;;4986214;28;20061;-79
2023/10/20 10:53:04;;;;;;;24.70;6.75;;;24.10;96.70;;;;;;4989540;28;20042;-79
2023/10/20 10:55:35;;;;;;;23.25;6.32;;;24.10;96.70;;;;;;4988603;28;20042;-80
2023/10/20 10:58:05;;;;;;;21.23;5.97;;;24.10;96.70;;;;;;5001735;28;20381;-78
2023/10/20 11:00:34;;;;;;;25.35;6.55;;;24.20;96.70;;;;;;5004972;28;20053;-80
2023/10/20 11:03:06;;;;;;;24.90;5.97;;;24.10;96.70;;;;;;4971783;28;20065;-79
2023/10/20 11:05:35;;;;;;;28.42;6.50;;;24.10;96.70;;;;;;4979288;28;20049;-80
2023/10/20 11:08:04;;;;;;;24.85;5.97;;;24.00;96.70;;;;;;4986756;28;20643;-78
2023/10/20 11:10:34;;;;;;;22.55;6.07;;;24.10;96.70;;;;;;4971573;28;20065;-80
2023/10/20 11:13:06;;;;;;;30.02;7.35;;;24.00;96.70;;;;;;4972387;28;20497;-80
2023/10/20 11:15:35;;;;;;;25.95;6.63;;;24.00;96.70;;;;;;4986699;28;20084;-79
2023/10/20 11:18:06;;;;;;;26.58;7.30;;;24.10;96.70;;;;;;4986563;28;20073;-80
2023/10/20 11:20:56;;;;;;;28.25;7.30;;;24.10;96.70;;;;;;5002499;28;20427;-79
2023/10/20 11:23:33;;;;;;;25.85;6.95;;;24.10;96.70;;;;;;4969979;28;20229;-79
2023/10/20 11:26:13;;;;;;;23.70;6.10;;;24.10;96.70;;;;;;4986975;28;20054;-79
2023/10/20 11:28:41;;;;;;;24.95;6.10;;;24.10;96.70;;;;;;4997395;28;20049;-80
2023/10/20 11:31:09;;;;;;;29.55;6.88;;;24.10;96.70;;;;;;4963563;28;20088;-80
2023/10/20 11:33:39;;;;;;;29.77;6.78;;;24.30;96.70;;;;;;4995960;28;20049;-80
2023/10/20 11:36:10;;;;;;;30.23;7.65;;;24.30;96.70;;;;;;4972325;28;20550;-80
2023/10/20 11:38:38;;;;;;;33.17;7.65;;;24.30;96.70;;;;;;5001489;28;20068;-80
2023/10/20 11:41:06;;;;;;;28.98;6.45;;;24.40;96.70;;;;;;4984227;28;20054;-80
2023/10/20 11:43:35;;;;;;;32.58;7.13;;;24.50;96.70;;;;;;4975173;28;20042;-80
2023/10/20 11:46:06;;;;;;;30.80;7.32;;;24.50;96.70;;;;;;4996302;28;20121;-80
2023/10/20 11:48:34;;;;;;;35.45;6.85;;;24.70;96.70;;;;;;4961773;28;20125;-80
2023/10/20 11:51:04;;;;;;;29.13;6.70;;;24.80;96.70;;;;;;5004849;28;20100;-80
2023/10/20 11:53:32;;;;;;;32.53;7.20;;;24.80;96.70;;;;;;4992771;28;20328;-79
2023/10/20 11:56:00;;;;;;;37.40;7.95;;;24.80;96.70;;;;;;4982413;28;20056;-80
2023/10/20 11:58:28;;;;;;;37.72;8.05;;;24.80;96.70;;;;;;5001102;28;20586;-79
2023/10/20 12:00:56;;;;;;;26.83;6.95;;;24.80;96.70;;;;;;4986667;28;20488;-80
2023/10/20 12:03:24;;;;;;;38.58;7.28;;;24.90;96.70;;;;;;4961356;28;20532;-79
2023/10/20 12:05:52;;;;;;;36.67;7.20;;;25.00;96.70;;;;;;4962108;28;20045;-79
2023/10/20 12:08:23;;;;;;;31.27;6.93;;;25.00;96.70;;;;;;4982626;28;20048;-79
2023/10/20 12:10:51;;;;;;;37.75;8.15;;;25.20;96.70;;;;;;4990439;28;20129;-80
2023/10/20 12:13:18;;;;;;;29.00;6.93;;;25.20;96.70;;;;;;4993785;28;20053;-80
2023/10/20 12:15:46;;;;;;;25.80;6.00;;;25.30;96.70;;;;;;4988424;28;20053;-80
2023/10/20 12:18:15;;;;;;;41.08;8.70;;;25.30;96.70;;;;;;4977494;28;20053;-79
2023/10/20 12:20:43;;;;;;;31.95;6.80;;;25.30;96.70;;;;;;4993545;28;20049;-78
2023/10/20 12:23:10;;;;;;;31.83;8.13;;;25.30;96.70;;;;;;4953403;28;20112;-78
2023/10/20 12:25:40;;;;;;;36.53;7.80;;;25.40;96.70;;;;;;4974294;28;20075;-79
2023/10/20 12:28:08;;;;;;;33.55;7.35;;;25.40;96.70;;;;;;4970274;28;20038;-79
2023/10/20 12:30:36;;;;;;;32.65;7.50;;;25.50;96.70;;;;;;4968797;28;20049;-79
2023/10/20 12:33:05;;;;;;;37.67;7.07;;;25.50;96.70;;;;;;4994228;28;20115;-79
2023/10/20 12:35:33;;;;;;;28.83;6.60;;;25.50;96.70;;;;;;4980917;28;20124;-80
2023/10/20 12:38:02;;;;;;;38.22;7.22;;;25.50;96.70;;;;;;5003452;28;20048;-79
2023/10/20 12:40:34;;;;;;;42.83;8.30;;;25.50;96.70;;;;;;4986573;28;20052;-79
2023/10/20 12:43:09;;;;;;;37.50;7.20;;;25.60;96.70;;;;;;5002020;28;20221;-80
2023/10/20 12:45:40;;;;;;;32.75;6.75;;;25.60;96.70;;;;;;4987606;28;20046;-80
2023/10/20 12:48:08;;;;;;;28.83;7.93;;;25.50;96.70;;;;;;4972600;28;20554;-79
2023/10/20 12:50:36;;;;;;;31.83;7.40;;;25.50;96.70;;;;;;5000970;28;20117;-79
2023/10/20 12:53:04;;;;;;;29.63;6.45;;;25.60;96.70;;;;;;4984118;28;20431;-79
2023/10/20 12:55:32;;;;;;;33.40;7.63;;;25.60;96.70;;;;;;5003232;28;20061;-80
2023/10/20 12:58:01;;;;;;;36.00;8.30;;;25.70;96.70;;;;;;5002071;28;20052;-79
2023/10/20 13:00:31;;;;;;;32.85;8.30;;;25.70;96.70;;;;;;4978744;28;20046;-78
2023/10/20 13:02:58;;;;;;;40.55;8.60;;;25.60;96.70;;;;;;5003906;28;20050;-79
2023/10/20 13:05:27;;;;;;;28.55;7.22;;;25.40;96.70;;;;;;5002660;28;20076;-79
2023/10/20 13:07:54;;;;;;;39.35;8.02;;;25.40;96.70;;;;;;4985669;28;20088;-79
2023/10/20 13:10:22;;;;;;;32.40;7.13;;;25.30;96.70;;;;;;4975713;28;20145;-79
2023/10/20 13:12:50;;;;;;;33.65;7.90;;;25.30;96.70;;;;;;4995487;28;20138;-79
2023/10/20 13:15:19;;;;;;;35.83;8.02;;;25.20;96.70;;;;;;4974624;28;20045;-79
2023/10/20 13:17:48;;;;;;;33.05;8.02;;;25.20;96.70;;;;;;4981450;28;20504;-79
2023/10/20 13:20:16;;;;;;;37.05;7.82;;;25.20;96.70;;;;;;4974126;28;20046;-78
2023/10/20 13:22:44;;;;;;;30.83;8.00;;;25.20;96.70;;;;;;4993386;28;20046;-78